Time;durP1;ratioP1;P1;durP2;ratioP2;P2;SDS_P1;SDS_P2;PMS_P1;PMS_P2;Temp;Humidity;BMP_temperature;BMP_pressure;BME280_temperature;BME280_humidity;BME280_pressure;Samples;Min_cycle;Max_cycle;Signal;HPM_P1;HPM_P2
2023/05/31 00:00:41;;;;;;;6.65;3.33;;;16.00;55.60;;;;;;6231445;28;20050;-84
2023/05/31 00:03:44;;;;;;;4.55;2.10;;;16.00;55.70;;;;;;6232364;28;20143;-84
2023/05/31 00:06:46;;;;;;;7.13;2.30;;;16.00;55.80;;;;;;6233362;28;20041;-84
2023/05/31 00:09:47;;;;;;;2.08;1.60;;;16.00;55.80;;;;;;6227823;28;20046;-84
2023/05/31 00:12:49;;;;;;;5.40;2.35;;;16.00;55.80;;;;;;6228358;28;20054;-84
2023/05/31 00:15:51;;;;;;;4.75;1.90;;;16.10;56.00;;;;;;6228336;28;20072;-84
2023/05/31 00:18:54;;;;;;;3.65;1.98;;;16.10;56.00;;;;;;6230350;28;20050;-85
2023/05/31 00:21:55;;;;;;;2.83;1.55;;;16.10;56.10;;;;;;6229512;28;20046;-84
2023/05/31 00:24:57;;;;;;;5.63;2.60;;;16.00;56.20;;;;;;6240624;28;20052;-85
2023/05/31 00:28:00;;;;;;;6.43;2.03;;;16.00;56.30;;;;;;6254382;28;20083;-84
2023/05/31 00:31:02;;;;;;;3.88;2.17;;;16.00;56.40;;;;;;6254692;28;20046;-84
2023/05/31 00:34:05;;;;;;;8.60;1.80;;;16.00;56.50;;;;;;6274539;28;20474;-84
2023/05/31 00:37:07;;;;;;;5.00;2.17;;;16.00;56.70;;;;;;6266301;28;20045;-85
2023/05/31 00:40:10;;;;;;;7.38;1.77;;;16.00;56.90;;;;;;6240518;28;20084;-83
2023/05/31 00:43:12;;;;;;;5.13;1.65;;;15.90;56.90;;;;;;6230289;28;20052;-84
2023/05/31 00:46:25;;;;;;;3.78;2.00;;;16.00;57.20;;;;;;6247769;28;20052;-85
2023/05/31 00:49:29;;;;;;;3.22;2.00;;;15.90;57.40;;;;;;6257114;28;20072;-84
2023/05/31 00:52:32;;;;;;;3.85;1.85;;;15.90;57.40;;;;;;6227997;28;20523;-84
2023/05/31 00:55:34;;;;;;;5.90;3.10;;;15.90;57.60;;;;;;6227492;28;20049;-85
2023/05/31 00:58:36;;;;;;;2.10;1.67;;;15.80;57.60;;;;;;6251698;28;20042;-84
2023/05/31 01:01:38;;;;;;;2.85;1.63;;;15.80;57.70;;;;;;6236171;28;20069;-84
2023/05/31 01:04:41;;;;;;;2.85;2.20;;;15.80;57.80;;;;;;6228727;28;20045;-84
2023/05/31 01:07:43;;;;;;;11.75;2.50;;;15.80;58.10;;;;;;6229233;28;20057;-83
2023/05/31 01:10:45;;;;;;;3.47;1.83;;;15.70;58.20;;;;;;6253269;28;20049;-83
2023/05/31 01:13:58;;;;;;;6.18;2.70;;;15.70;58.40;;;;;;6233430;28;20045;-83
2023/05/31 01:17:13;;;;;;;4.18;1.98;;;15.60;58.60;;;;;;6227953;28;20050;-83
2023/05/31 01:20:19;;;;;;;6.50;1.85;;;15.50;58.80;;;;;;6233003;28;20038;-83
2023/05/31 01:23:34;;;;;;;3.40;1.75;;;15.50;59.70;;;;;;6253134;28;20052;-83
2023/05/31 01:26:41;;;;;;;3.72;2.20;;;15.40;59.30;;;;;;6229209;28;20046;-84
2023/05/31 01:29:44;;;;;;;8.32;2.08;;;15.30;59.50;;;;;;6229250;28;20057;-83
2023/05/31 01:32:47;;;;;;;4.68;2.28;;;15.20;59.60;;;;;;6238994;28;20500;-83
2023/05/31 01:35:49;;;;;;;3.65;1.98;;;15.20;60.10;;;;;;6251867;28;20057;-83
2023/05/31 01:38:51;;;;;;;3.42;1.75;;;15.10;60.40;;;;;;6228667;28;20488;-83
2023/05/31 01:41:56;;;;;;;8.50;2.65;;;15.00;60.80;;;;;;6229015;28;20081;-84
2023/05/31 01:44:58;;;;;;;6.03;2.42;;;14.90;61.10;;;;;;6244894;28;20055;-84
2023/05/31 01:48:03;;;;;;;5.35;1.75;;;14.90;61.50;;;;;;6262864;28;20048;-84
2023/05/31 01:51:09;;;;;;;5.22;2.15;;;14.80;61.80;;;;;;6232902;28;20045;-83
2023/05/31 01:54:11;;;;;;;4.28;1.60;;;14.70;62.00;;;;;;6228848;28;20050;-84
2023/05/31 01:57:15;;;;;;;3.22;2.00;;;14.70;62.30;;;;;;6242437;28;20052;-84
2023/05/31 02:00:17;;;;;;;3.85;2.15;;;14.60;62.40;;;;;;6247234;28;20657;-84
2023/05/31 02:03:19;;;;;;;3.80;2.45;;;14.60;62.60;;;;;;6228324;28;20057;-84
2023/05/31 02:06:20;;;;;;;3.72;2.30;;;14.50;62.80;;;;;;6227848;28;20133;-84
2023/05/31 02:09:22;;;;;;;5.38;1.65;;;14.40;63.20;;;;;;6242042;28;20052;-84
2023/05/31 02:12:25;;;;;;;7.47;2.45;;;14.30;63.60;;;;;;6245026;28;20053;-83
2023/05/31 02:15:27;;;;;;;5.65;2.25;;;14.30;63.90;;;;;;6227604;28;20073;-84
2023/05/31 02:18:29;;;;;;;6.32;2.08;;;14.20;64.10;;;;;;6226770;28;20452;-83
2023/05/31 02:21:33;;;;;;;3.42;2.50;;;14.20;64.50;;;;;;6241745;28;20419;-83
2023/05/31 02:24:35;;;;;;;3.67;3.22;;;14.10;64.80;;;;;;6244005;28;20050;-85
2023/05/31 02:27:38;;;;;;;7.50;2.45;;;14.10;64.90;;;;;;6225265;28;20053;-83
2023/05/31 02:30:41;;;;;;;4.25;1.88;;;14.00;65.10;;;;;;6225800;28;20049;-84
2023/05/31 02:33:42;;;;;;;4.55;1.63;;;14.00;65.20;;;;;;6223274;28;20049;-83
2023/05/31 02:36:44;;;;;;;13.75;2.88;;;14.00;65.30;;;;;;6224847;28;20054;-84
2023/05/31 02:39:46;;;;;;;5.82;2.17;;;14.00;65.50;;;;;;6225760;28;20053;-84
2023/05/31 02:42:49;;;;;;;8.55;2.53;;;13.90;65.70;;;;;;6227880;28;20050;-83
2023/05/31 02:45:51;;;;;;;6.93;2.25;;;13.90;66.00;;;;;;6225356;28;20052;-84
2023/05/31 02:48:52;;;;;;;6.50;2.42;;;13.80;66.20;;;;;;6224800;28;20050;-84
2023/05/31 02:51:54;;;;;;;4.80;2.08;;;13.80;66.50;;;;;;6224244;28;20045;-84
2023/05/31 02:54:56;;;;;;;4.88;2.30;;;13.70;66.80;;;;;;6225420;28;20053;-84
2023/05/31 02:57:59;;;;;;;4.38;2.25;;;13.60;67.10;;;;;;6224118;28;20046;-83
2023/05/31 03:01:01;;;;;;;5.97;2.25;;;13.50;67.40;;;;;;6225165;28;20046;-84
2023/05/31 03:04:02;;;;;;;7.10;2.00;;;13.50;67.80;;;;;;6224621;28;20049;-83
2023/05/31 03:07:04;;;;;;;3.92;2.58;;;13.40;68.00;;;;;;6225872;28;20050;-85
2023/05/31 03:10:08;;;;;;;4.38;2.08;;;13.40;68.30;;;;;;6225175;28;20045;-85
2023/05/31 03:13:11;;;;;;;3.83;2.30;;;13.40;68.40;;;;;;6226651;28;20053;-85
2023/05/31 03:16:13;;;;;;;3.70;2.10;;;13.40;68.50;;;;;;6225373;28;20057;-84
2023/05/31 03:19:14;;;;;;;3.45;2.35;;;13.40;68.60;;;;;;6225439;28;20037;-84
2023/05/31 03:22:16;;;;;;;2.05;1.85;;;13.40;68.80;;;;;;6223998;28;20420;-84
2023/05/31 03:25:18;;;;;;;6.25;2.10;;;13.40;69.00;;;;;;6224769;28;20049;-84
2023/05/31 03:28:21;;;;;;;6.82;2.22;;;13.40;69.20;;;;;;6223543;28;20683;-84
2023/05/31 03:31:22;;;;;;;3.90;2.40;;;13.30;69.40;;;;;;6226571;28;20050;-82
2023/05/31 03:34:24;;;;;;;6.80;2.70;;;13.30;69.50;;;;;;6227252;28;20041;-81
2023/05/31 03:37:26;;;;;;;5.28;2.03;;;13.40;69.80;;;;;;6226329;28;20050;-82
2023/05/31 03:40:27;;;;;;;4.68;1.90;;;13.40;69.90;;;;;;6226097;28;20046;-82
2023/05/31 03:43:30;;;;;;;4.53;2.33;;;13.40;70.00;;;;;;6225662;28;20054;-81
2023/05/31 03:46:32;;;;;;;3.75;2.08;;;13.30;70.40;;;;;;6229445;28;20045;-82
2023/05/31 03:49:34;;;;;;;7.00;2.10;;;13.30;70.60;;;;;;6231336;28;20045;-83
2023/05/31 03:52:37;;;;;;;4.28;2.30;;;13.40;70.80;;;;;;6232368;28;20042;-82
2023/05/31 03:55:39;;;;;;;5.97;3.35;;;13.40;71.00;;;;;;6231886;28;20053;-81
2023/05/31 03:58:42;;;;;;;3.95;2.90;;;13.50;71.10;;;;;;6231344;28;20057;-83
2023/05/31 04:01:43;;;;;;;6.03;2.25;;;13.60;70.80;;;;;;6231078;28;20057;-83
2023/05/31 04:04:45;;;;;;;2.55;2.10;;;13.60;70.50;;;;;;6233546;28;20085;-83
2023/05/31 04:07:47;;;;;;;4.53;2.88;;;13.60;70.60;;;;;;6233146;28;20053;-83
2023/05/31 04:10:50;;;;;;;4.10;2.38;;;13.60;70.90;;;;;;6235750;28;20046;-83
2023/05/31 04:13:53;;;;;;;4.90;2.08;;;13.80;71.40;;;;;;6235379;28;20052;-83
2023/05/31 04:16:54;;;;;;;4.38;2.10;;;13.80;71.80;;;;;;6234975;28;20105;-83
2023/05/31 04:19:56;;;;;;;7.47;2.63;;;14.00;72.30;;;;;;6234332;28;21542;-83
2023/05/31 04:22:58;;;;;;;3.65;2.45;;;14.20;72.70;;;;;;6230940;28;20050;-82
2023/05/31 04:26:02;;;;;;;3.40;2.25;;;14.90;72.20;;;;;;6229574;28;20058;-82
2023/05/31 04:29:05;;;;;;;2.75;2.00;;;15.70;70.70;;;;;;6237487;28;20120;-82
2023/05/31 04:32:07;;;;;;;6.00;2.53;;;16.30;68.90;;;;;;6255057;28;20034;-84
2023/05/31 04:35:10;;;;;;;3.97;2.15;;;16.70;67.80;;;;;;6255166;28;20128;-82
2023/05/31 04:38:14;;;;;;;3.08;2.50;;;17.00;67.60;;;;;;6252104;28;20095;-84
2023/05/31 04:41:15;;;;;;;4.25;1.90;;;17.60;66.40;;;;;;6253519;28;20053;-83
2023/05/31 04:44:19;;;;;;;2.70;2.38;;;18.30;65.20;;;;;;6253532;28;20056;-85
2023/05/31 04:47:21;;;;;;;4.63;2.40;;;19.20;63.50;;;;;;6254065;28;20628;-83
2023/05/31 04:50:23;;;;;;;4.85;2.33;;;19.90;61.60;;;;;;6252959;28;20065;-83
2023/05/31 04:53:24;;;;;;;6.47;1.65;;;20.70;60.00;;;;;;6253207;28;20042;-84
2023/05/31 04:56:26;;;;;;;8.48;3.08;;;21.50;58.10;;;;;;6252397;28;20049;-84
2023/05/31 04:59:29;;;;;;;10.85;2.25;;;22.20;56.20;;;;;;6252566;28;20049;-83
2023/05/31 05:02:31;;;;;;;4.18;2.38;;;22.70;54.90;;;;;;6252143;28;20049;-83
2023/05/31 05:05:33;;;;;;;4.47;2.53;;;22.90;53.30;;;;;;6251475;28;20041;-83
2023/05/31 05:08:34;;;;;;;3.28;2.03;;;23.10;52.20;;;;;;6252415;28;20530;-84
2023/05/31 05:11:36;;;;;;;4.88;2.42;;;23.20;51.70;;;;;;6252504;28;20053;-84
2023/05/31 05:14:39;;;;;;;8.30;2.72;;;23.40;51.00;;;;;;6252020;28;20104;-84
2023/05/31 05:17:44;;;;;;;4.30;2.00;;;23.40;50.40;;;;;;6250463;28;20053;-84
2023/05/31 05:20:46;;;;;;;6.20;1.85;;;23.50;50.00;;;;;;6260613;28;20048;-83
2023/05/31 05:23:48;;;;;;;3.75;1.98;;;23.80;49.00;;;;;;6272641;28;20052;-83
2023/05/31 05:26:49;;;;;;;4.35;2.30;;;23.70;48.10;;;;;;6228186;28;20050;-82
2023/05/31 05:29:52;;;;;;;4.50;2.58;;;23.60;48.30;;;;;;6227889;28;20045;-83
2023/05/31 05:32:54;;;;;;;5.00;1.95;;;23.70;48.00;;;;;;6228416;28;20042;-83
2023/05/31 05:35:56;;;;;;;5.70;2.33;;;23.70;47.90;;;;;;6228221;28;20061;-82
2023/05/31 05:39:03;;;;;;;4.28;2.22;;;23.70;47.70;;;;;;6227968;28;20049;-83
2023/05/31 05:42:05;;;;;;;3.17;1.75;;;23.70;47.40;;;;;;6227381;28;20042;-82
2023/05/31 05:45:10;;;;;;;5.72;2.35;;;24.00;47.40;;;;;;6226737;28;20057;-82
2023/05/31 05:48:12;;;;;;;5.20;2.47;;;24.50;46.90;;;;;;6225449;28;20046;-83
2023/05/31 05:51:13;;;;;;;4.13;1.90;;;24.80;46.60;;;;;;6226708;28;20053;-82
2023/05/31 05:54:15;;;;;;;2.60;1.88;;;25.00;46.70;;;;;;6225940;28;20041;-83
2023/05/31 05:57:17;;;;;;;6.22;1.98;;;25.20;45.40;;;;;;6225886;28;20056;-82
2023/05/31 06:00:21;;;;;;;7.60;1.95;;;25.30;45.00;;;;;;6226533;28;20123;-83
2023/05/31 06:03:23;;;;;;;5.13;1.90;;;25.20;44.70;;;;;;6226134;28;20492;-83
2023/05/31 06:06:26;;;;;;;7.70;1.98;;;25.00;44.50;;;;;;6224827;28;20412;-83
2023/05/31 06:09:27;;;;;;;3.58;2.03;;;24.70;44.90;;;;;;6225848;28;20057;-82
2023/05/31 06:12:29;;;;;;;3.92;2.15;;;24.80;44.80;;;;;;6226159;28;20045;-83
2023/05/31 06:15:32;;;;;;;7.32;3.30;;;24.90;44.90;;;;;;6227321;28;20046;-82
2023/05/31 06:18:34;;;;;;;7.30;2.67;;;24.90;44.40;;;;;;6227303;28;20057;-82
2023/05/31 06:21:36;;;;;;;5.15;2.67;;;25.10;44.30;;;;;;6227422;28;20084;-82
2023/05/31 06:24:37;;;;;;;5.90;2.28;;;25.40;44.20;;;;;;6227652;28;20049;-83
2023/05/31 06:27:39;;;;;;;5.82;2.20;;;25.50;43.80;;;;;;6226624;28;20054;-82
2023/05/31 06:30:42;;;;;;;10.65;2.50;;;25.60;43.90;;;;;;6226825;28;20519;-82
2023/05/31 06:33:44;;;;;;;4.68;2.10;;;25.90;43.60;;;;;;6226074;28;20041;-83
2023/05/31 06:36:46;;;;;;;3.70;1.73;;;26.00;42.70;;;;;;6251112;28;20052;-82
2023/05/31 06:39:47;;;;;;;7.38;2.42;;;25.70;42.40;;;;;;6251836;28;20045;-81
2023/05/31 06:42:49;;;;;;;3.03;2.58;;;25.60;43.10;;;;;;6180269;28;20038;-82
2023/05/31 06:45:52;;;;;;;2.90;1.50;;;25.90;43.10;;;;;;6216189;28;20456;-79
2023/05/31 06:48:54;;;;;;;7.18;2.10;;;26.30;42.90;;;;;;6225287;28;20410;-82
2023/05/31 06:51:57;;;;;;;25.73;2.70;;;26.80;42.40;;;;;;6227076;28;20447;-80
2023/05/31 06:54:59;;;;;;;5.68;1.85;;;26.20;41.90;;;;;;6219486;28;20049;-81
2023/05/31 06:58:01;;;;;;;5.55;2.03;;;25.00;42.90;;;;;;6234730;28;20060;-82
2023/05/31 07:01:04;;;;;;;4.05;2.00;;;23.70;44.20;;;;;;6236993;28;20116;-83
2023/05/31 07:04:06;;;;;;;6.75;2.08;;;22.70;46.00;;;;;;6231810;28;20604;-79
2023/05/31 07:07:08;;;;;;;3.85;2.60;;;22.10;47.10;;;;;;6235580;28;20506;-79
2023/05/31 07:10:10;;;;;;;4.28;2.20;;;21.80;47.70;;;;;;6237768;28;20046;-79
2023/05/31 07:13:12;;;;;;;4.38;2.15;;;21.60;48.20;;;;;;6235047;28;20048;-79
2023/05/31 07:16:15;;;;;;;5.40;2.40;;;21.60;49.00;;;;;;6231216;28;20049;-78
2023/05/31 07:19:17;;;;;;;9.32;3.35;;;21.60;49.60;;;;;;6231064;28;20049;-78
2023/05/31 07:22:18;;;;;;;3.47;2.17;;;21.40;49.00;;;;;;6233974;28;20041;-78
2023/05/31 07:25:20;;;;;;;4.38;2.53;;;21.10;49.70;;;;;;6238572;28;20048;-78
2023/05/31 07:28:22;;;;;;;9.50;2.78;;;20.80;50.30;;;;;;6240845;28;20526;-79
2023/05/31 07:31:25;;;;;;;6.35;2.83;;;20.80;50.70;;;;;;6223373;28;20064;-79
2023/05/31 07:34:27;;;;;;;3.22;2.28;;;21.00;50.90;;;;;;6221866;28;20061;-79
2023/05/31 07:37:29;;;;;;;5.53;1.90;;;21.20;50.80;;;;;;6223110;28;20049;-80
2023/05/31 07:40:31;;;;;;;4.93;1.90;;;21.40;50.70;;;;;;6233218;28;20057;-80
2023/05/31 07:43:34;;;;;;;9.85;2.47;;;21.60;50.50;;;;;;6252128;28;20041;-80
2023/05/31 07:46:37;;;;;;;5.55;2.40;;;21.60;50.20;;;;;;6224391;28;20496;-81
2023/05/31 07:49:39;;;;;;;4.72;2.55;;;21.60;50.40;;;;;;6238334;28;20054;-82
2023/05/31 07:52:40;;;;;;;3.55;2.25;;;21.80;50.40;;;;;;6244323;28;20436;-80
2023/05/31 07:55:42;;;;;;;5.45;2.88;;;21.90;50.50;;;;;;6224849;28;20519;-78
2023/05/31 07:58:44;;;;;;;2.95;2.15;;;22.10;50.40;;;;;;6252721;28;20049;-81
2023/05/31 08:01:48;;;;;;;5.50;2.33;;;22.30;50.10;;;;;;6236375;28;20050;-81
2023/05/31 08:04:49;;;;;;;4.15;2.35;;;22.60;50.00;;;;;;6230538;28;20139;-81
2023/05/31 08:07:51;;;;;;;5.15;2.65;;;22.80;49.70;;;;;;6231157;28;20054;-80
2023/05/31 08:10:53;;;;;;;6.53;2.45;;;22.80;49.40;;;;;;6233268;28;20046;-81
2023/05/31 08:13:55;;;;;;;6.15;3.63;;;22.90;49.60;;;;;;6232664;28;20042;-80
2023/05/31 08:16:58;;;;;;;8.57;2.70;;;22.90;49.20;;;;;;6227026;28;20046;-81
2023/05/31 08:19:59;;;;;;;4.25;2.90;;;22.80;49.40;;;;;;6212355;28;20049;-79
2023/05/31 08:23:01;;;;;;;8.30;2.38;;;22.90;49.50;;;;;;6212534;28;20481;-78
2023/05/31 08:26:03;;;;;;;7.93;2.97;;;23.00;49.20;;;;;;6217035;28;20112;-82
2023/05/31 08:29:05;;;;;;;5.53;2.22;;;22.90;49.30;;;;;;6217465;28;20158;-81
2023/05/31 08:32:08;;;;;;;10.73;2.53;;;23.00;49.50;;;;;;6219976;28;20060;-81
2023/05/31 08:35:10;;;;;;;6.82;3.17;;;23.20;49.30;;;;;;6220250;28;20045;-81
2023/05/31 08:38:12;;;;;;;5.93;2.17;;;23.40;49.40;;;;;;6220024;28;20049;-81
2023/05/31 08:41:14;;;;;;;6.20;1.98;;;23.60;48.90;;;;;;6224043;28;20124;-80
2023/05/31 08:44:17;;;;;;;4.97;2.65;;;23.70;48.80;;;;;;6221565;28;20416;-81
2023/05/31 08:47:25;;;;;;;6.40;2.47;;;23.60;48.80;;;;;;6213756;28;20062;-79
2023/05/31 08:50:31;;;;;;;6.30;3.85;;;23.70;49.10;;;;;;6218791;28;20045;-80
2023/05/31 08:53:34;;;;;;;8.52;2.67;;;24.00;48.70;;;;;;6237985;28;20048;-80
2023/05/31 08:56:37;;;;;;;7.20;3.90;;;24.10;48.40;;;;;;6242280;28;20046;-80
2023/05/31 08:59:40;;;;;;;4.75;2.13;;;24.20;48.30;;;;;;6224161;28;20046;-81
2023/05/31 09:02:43;;;;;;;7.07;2.58;;;24.30;48.30;;;;;;6229936;28;20042;-81
2023/05/31 09:05:45;;;;;;;4.88;2.35;;;24.40;48.30;;;;;;6228879;28;20046;-82
2023/05/31 09:08:48;;;;;;;7.28;2.00;;;24.60;48.80;;;;;;6231510;28;20053;-82
2023/05/31 09:11:50;;;;;;;7.55;2.67;;;24.60;47.60;;;;;;6233519;28;20466;-81
2023/05/31 09:14:53;;;;;;;3.65;2.38;;;24.60;47.60;;;;;;6251659;28;20439;-82
2023/05/31 09:17:57;;;;;;;6.05;3.47;;;24.60;47.40;;;;;;6238990;28;20056;-82
2023/05/31 09:20:58;;;;;;;6.03;2.38;;;24.70;47.40;;;;;;6239463;28;20049;-82
2023/05/31 09:24:00;;;;;;;3.85;2.67;;;25.30;47.00;;;;;;6241163;28;20179;-82
2023/05/31 09:27:02;;;;;;;7.45;2.35;;;26.10;46.50;;;;;;6256976;28;20046;-82
2023/05/31 09:33:06;;;;;;;9.18;2.75;;;27.10;44.80;;;;;;6224273;23;20046;-78
2023/05/31 09:36:09;;;;;;;9.73;2.20;;;27.70;44.80;;;;;;6201894;28;20070;-78
2023/05/31 09:39:11;;;;;;;5.60;2.90;;;28.10;43.50;;;;;;6200686;28;20082;-79
2023/05/31 09:42:14;;;;;;;5.65;2.83;;;28.20;43.10;;;;;;6197416;28;20412;-79
2023/05/31 09:45:15;;;;;;;3.35;1.85;;;28.20;42.40;;;;;;6195800;28;20531;-78
2023/05/31 09:48:19;;;;;;;4.22;2.33;;;28.00;42.10;;;;;;6194965;28;20047;-78
2023/05/31 09:51:21;;;;;;;8.68;2.30;;;28.10;42.50;;;;;;6190789;28;20065;-79
2023/05/31 09:54:25;;;;;;;5.50;2.10;;;28.40;42.30;;;;;;6197866;28;20038;-79
2023/05/31 09:57:45;;;;;;;10.93;3.15;;;28.60;42.10;;;;;;6197318;28;20077;-78
2023/05/31 10:00:48;;;;;;;5.45;2.47;;;28.20;42.10;;;;;;6197427;28;20065;-79
2023/05/31 10:03:52;;;;;;;5.22;2.20;;;27.70;42.20;;;;;;6207088;28;20134;-79
2023/05/31 10:06:55;;;;;;;4.05;1.95;;;27.20;42.70;;;;;;6207890;28;20050;-79
2023/05/31 10:09:57;;;;;;;6.07;1.90;;;26.90;43.40;;;;;;6198810;28;20046;-80
2023/05/31 10:13:02;;;;;;;8.82;3.15;;;27.10;43.30;;;;;;6198610;28;20058;-79
2023/05/31 10:16:06;;;;;;;6.05;2.03;;;27.00;43.10;;;;;;6197539;28;20066;-79
2023/05/31 10:19:13;;;;;;;9.25;2.75;;;27.00;43.30;;;;;;6197364;28;20058;-78
2023/05/31 10:22:17;;;;;;;3.17;2.05;;;27.00;44.00;;;;;;6196234;28;20073;-79
2023/05/31 10:25:28;;;;;;;6.90;2.38;;;27.20;43.60;;;;;;6191037;28;20529;-78
2023/05/31 10:28:36;;;;;;;7.93;2.42;;;27.30;42.00;;;;;;6191861;28;20043;-78
2023/05/31 10:31:49;;;;;;;8.73;2.60;;;27.10;41.30;;;;;;6196680;28;20046;-79
2023/05/31 10:34:53;;;;;;;9.00;2.90;;;27.20;40.80;;;;;;6192261;28;20472;-79
2023/05/31 10:37:55;;;;;;;6.45;3.80;;;27.10;40.60;;;;;;6192165;28;20046;-77
2023/05/31 10:41:05;;;;;;;8.63;2.65;;;27.10;40.80;;;;;;6197109;28;20038;-79
2023/05/31 10:44:12;;;;;;;6.80;2.33;;;27.30;41.20;;;;;;6194471;28;20042;-79
2023/05/31 10:47:16;;;;;;;4.60;2.58;;;27.70;40.40;;;;;;6195366;28;20049;-78
2023/05/31 10:50:20;;;;;;;6.50;1.95;;;27.70;40.20;;;;;;6192379;28;20059;-78
2023/05/31 10:53:22;;;;;;;4.60;2.08;;;27.70;40.30;;;;;;6192932;28;20050;-78
2023/05/31 10:56:28;;;;;;;3.58;1.67;;;28.00;40.20;;;;;;6198548;28;20045;-78
2023/05/31 10:59:29;;;;;;;6.50;2.88;;;28.10;39.70;;;;;;6195404;28;20496;-78
2023/05/31 11:02:31;;;;;;;5.18;1.88;;;28.20;39.20;;;;;;6193557;28;20050;-78
2023/05/31 11:05:34;;;;;;;4.65;2.03;;;28.10;39.20;;;;;;6192582;28;20054;-78
2023/05/31 11:08:37;;;;;;;4.75;2.10;;;28.20;38.90;;;;;;6192939;28;20046;-78
2023/05/31 11:11:46;;;;;;;3.35;2.40;;;28.10;38.50;;;;;;6191881;28;20141;-79
2023/05/31 11:15:00;;;;;;;6.80;2.78;;;28.00;38.40;;;;;;6195204;28;20618;-79
2023/05/31 11:18:02;;;;;;;3.85;1.77;;;28.10;38.40;;;;;;6192239;28;20043;-79
2023/05/31 11:21:07;;;;;;;11.05;2.40;;;28.30;38.80;;;;;;6193633;28;20517;-77
2023/05/31 11:24:08;;;;;;;4.68;1.80;;;28.60;38.10;;;;;;6194267;28;20500;-78
2023/05/31 11:27:13;;;;;;;7.35;2.25;;;28.60;38.20;;;;;;6193628;28;20511;-79
2023/05/31 11:30:16;;;;;;;5.32;2.20;;;28.70;38.30;;;;;;6198086;28;20061;-79
2023/05/31 11:33:18;;;;;;;8.57;2.45;;;28.70;38.20;;;;;;6198527;28;20078;-78
2023/05/31 11:36:23;;;;;;;4.22;2.40;;;29.00;37.90;;;;;;6194868;28;20054;-79
2023/05/31 11:39:25;;;;;;;3.70;1.92;;;28.80;37.60;;;;;;6199333;28;20114;-79
2023/05/31 11:42:31;;;;;;;8.20;2.15;;;29.00;37.80;;;;;;6198312;28;20062;-79
2023/05/31 11:45:34;;;;;;;6.70;2.78;;;29.20;37.40;;;;;;6199955;28;20050;-79
2023/05/31 11:48:40;;;;;;;3.95;1.83;;;29.00;37.40;;;;;;6193876;28;20053;-79
2023/05/31 11:51:44;;;;;;;10.52;2.40;;;29.10;37.50;;;;;;6195832;28;20502;-78
2023/05/31 11:54:47;;;;;;;15.48;3.92;;;29.20;37.20;;;;;;6202965;28;20050;-80
2023/05/31 11:57:53;;;;;;;5.43;2.00;;;29.00;38.10;;;;;;6200669;28;20053;-79
2023/05/31 12:00:59;;;;;;;2.95;1.90;;;28.90;37.90;;;;;;6218507;28;20061;-79
2023/05/31 12:04:01;;;;;;;8.20;1.73;;;28.70;38.10;;;;;;6196270;28;20055;-78
2023/05/31 12:07:06;;;;;;;24.08;3.53;;;28.60;38.10;;;;;;6200391;28;20086;-78
2023/05/31 12:10:09;;;;;;;7.75;2.05;;;28.70;37.90;;;;;;6199905;28;20050;-79
2023/05/31 12:13:11;;;;;;;6.82;3.03;;;28.50;37.80;;;;;;6200427;28;20049;-77
2023/05/31 12:16:12;;;;;;;2.67;2.08;;;28.50;38.30;;;;;;6198828;28;20746;-78
2023/05/31 12:19:14;;;;;;;4.78;1.95;;;28.80;38.20;;;;;;6198643;28;20546;-79
2023/05/31 12:22:18;;;;;;;4.22;2.38;;;28.90;37.80;;;;;;6197422;28;20081;-79
2023/05/31 12:25:20;;;;;;;5.63;2.47;;;28.80;38.00;;;;;;6198066;28;20051;-79
2023/05/31 12:28:22;;;;;;;5.32;2.75;;;29.00;38.10;;;;;;6201078;28;20052;-78
2023/05/31 12:31:24;;;;;;;6.10;2.67;;;29.20;38.00;;;;;;6198012;28;20125;-79
2023/05/31 12:34:28;;;;;;;4.53;2.28;;;29.30;38.10;;;;;;6200239;28;20065;-79
2023/05/31 12:37:35;;;;;;;10.20;3.42;;;29.70;38.00;;;;;;6197434;28;20501;-78
2023/05/31 12:40:42;;;;;;;3.67;2.03;;;30.10;37.70;;;;;;6200467;28;20050;-79
2023/05/31 12:43:44;;;;;;;5.97;2.00;;;30.10;37.10;;;;;;6196209;28;20054;-79
2023/05/31 12:46:46;;;;;;;9.55;2.72;;;30.00;37.20;;;;;;6204424;28;20408;-78
2023/05/31 12:49:48;;;;;;;4.65;1.90;;;30.10;37.50;;;;;;6199395;28;20058;-78
2023/05/31 12:52:57;;;;;;;5.93;2.08;;;30.30;37.40;;;;;;6201255;28;20062;-80
2023/05/31 12:55:59;;;;;;;29.83;4.60;;;30.00;37.00;;;;;;6195409;28;20046;-78
2023/05/31 12:59:01;;;;;;;3.65;1.88;;;30.00;37.00;;;;;;6195157;28;20062;-79
2023/05/31 13:02:05;;;;;;;7.25;2.28;;;30.10;36.60;;;;;;6194878;28;20058;-78
2023/05/31 13:05:08;;;;;;;3.85;1.90;;;30.00;36.50;;;;;;6195997;28;20030;-80
2023/05/31 13:08:12;;;;;;;10.38;2.10;;;29.80;36.70;;;;;;6198044;28;20178;-79
2023/05/31 13:11:13;;;;;;;9.02;3.47;;;29.60;37.00;;;;;;6192083;28;20429;-79
2023/05/31 13:14:16;;;;;;;5.40;2.78;;;29.40;37.00;;;;;;6195233;28;20053;-79
2023/05/31 13:17:18;;;;;;;3.00;2.28;;;29.30;37.00;;;;;;6193776;28;20131;-79
2023/05/31 13:20:20;;;;;;;4.32;1.90;;;29.10;36.90;;;;;;6202108;28;20062;-79
2023/05/31 13:23:23;;;;;;;4.22;1.88;;;29.00;37.20;;;;;;6195542;28;20090;-79
2023/05/31 13:26:27;;;;;;;6.50;1.98;;;29.00;36.70;;;;;;6195447;28;20042;-80
2023/05/31 13:29:28;;;;;;;5.25;2.03;;;28.70;36.70;;;;;;6194480;28;20069;-79
2023/05/31 13:32:30;;;;;;;8.00;3.30;;;28.70;37.10;;;;;;6198315;28;20049;-79
2023/05/31 13:35:32;;;;;;;4.80;2.35;;;28.60;36.90;;;;;;6197246;28;20038;-79
2023/05/31 13:38:36;;;;;;;3.45;1.83;;;28.80;37.30;;;;;;6193366;28;20081;-79
2023/05/31 13:41:37;;;;;;;4.60;2.10;;;28.80;37.30;;;;;;6187858;28;20054;-79
2023/05/31 13:44:39;;;;;;;6.45;2.15;;;28.90;37.30;;;;;;6188284;28;20043;-79
2023/05/31 13:47:41;;;;;;;5.32;1.98;;;28.80;37.20;;;;;;6189908;28;20054;-79
2023/05/31 13:50:43;;;;;;;4.50;2.58;;;28.90;37.20;;;;;;6189099;28;20441;-79
2023/05/31 13:53:46;;;;;;;3.38;1.70;;;28.80;37.30;;;;;;6188141;28;20047;-78
2023/05/31 13:56:47;;;;;;;12.55;2.17;;;29.00;36.90;;;;;;6188681;28;20069;-79
2023/05/31 13:59:49;;;;;;;4.32;2.97;;;29.10;36.80;;;;;;6194754;28;20072;-79
2023/05/31 14:02:51;;;;;;;3.05;2.17;;;29.40;36.80;;;;;;6193465;28;20077;-81
2023/05/31 14:05:53;;;;;;;5.03;2.28;;;29.40;36.30;;;;;;6191089;28;20049;-82
2023/05/31 14:08:56;;;;;;;4.18;2.13;;;29.50;36.50;;;;;;6198407;28;20056;-80
2023/05/31 14:11:59;;;;;;;3.95;2.08;;;29.50;35.80;;;;;;6204763;28;20058;-79
2023/05/31 14:15:00;;;;;;;7.00;2.95;;;29.40;35.80;;;;;;6203669;28;20046;-80
2023/05/31 14:18:02;;;;;;;4.63;2.30;;;29.40;35.40;;;;;;6199304;28;20062;-81
2023/05/31 14:21:05;;;;;;;9.02;2.10;;;29.30;35.20;;;;;;6198652;28;20522;-80
2023/05/31 14:24:08;;;;;;;10.43;2.53;;;29.10;35.20;;;;;;6198867;28;20050;-80
2023/05/31 14:27:10;;;;;;;4.28;2.25;;;29.20;35.40;;;;;;6198213;28;20054;-80
2023/05/31 14:30:12;;;;;;;5.20;2.40;;;29.50;35.00;;;;;;6197602;28;20121;-80
2023/05/31 14:33:14;;;;;;;4.85;2.40;;;29.50;34.90;;;;;;6200574;28;20042;-79
2023/05/31 14:36:15;;;;;;;7.53;2.60;;;29.50;35.30;;;;;;6195172;28;20136;-80
2023/05/31 14:39:23;;;;;;;6.78;1.90;;;29.50;34.90;;;;;;6205665;28;20046;-84
2023/05/31 14:42:28;;;;;;;7.53;1.75;;;29.50;34.90;;;;;;6203364;28;20404;-84
2023/05/31 14:45:30;;;;;;;3.67;2.08;;;29.60;34.90;;;;;;6210154;28;20060;-82
2023/05/31 14:48:32;;;;;;;2.33;1.75;;;29.60;34.70;;;;;;6204456;28;20042;-84
2023/05/31 14:51:35;;;;;;;4.22;2.03;;;29.60;34.60;;;;;;6200754;28;20046;-83
2023/05/31 14:55:13;;;;;;;5.45;2.35;;;29.50;34.70;;;;;;6202349;28;20047;-84
2023/05/31 14:58:15;;;;;;;7.00;1.70;;;29.50;34.70;;;;;;6207856;28;20077;-84
2023/05/31 15:01:19;;;;;;;5.70;2.00;;;29.30;34.50;;;;;;6204002;28;20058;-83
2023/05/31 15:04:21;;;;;;;6.00;1.75;;;29.10;34.40;;;;;;6208533;28;20050;-82
2023/05/31 15:07:23;;;;;;;3.72;2.10;;;29.20;34.60;;;;;;6202445;28;20049;-82
2023/05/31 15:10:26;;;;;;;3.20;1.73;;;29.20;34.00;;;;;;6210206;28;20042;-82
2023/05/31 15:13:27;;;;;;;6.65;2.30;;;29.20;34.10;;;;;;6213500;28;20054;-82
2023/05/31 15:16:29;;;;;;;2.55;1.60;;;29.00;34.00;;;;;;6210657;28;20059;-83
2023/05/31 15:19:31;;;;;;;3.53;2.08;;;28.90;34.30;;;;;;6202707;28;20046;-82
2023/05/31 15:22:33;;;;;;;12.27;2.78;;;28.80;34.60;;;;;;6208888;28;20106;-84
2023/05/31 15:25:36;;;;;;;6.25;2.10;;;28.80;34.60;;;;;;6202349;28;20042;-82
2023/05/31 15:28:38;;;;;;;6.03;2.22;;;28.80;34.60;;;;;;6206657;28;20450;-85
2023/05/31 15:31:40;;;;;;;2.40;1.80;;;28.90;34.40;;;;;;6203459;28;20074;-80
2023/05/31 15:34:41;;;;;;;4.05;2.20;;;28.80;34.30;;;;;;6211776;28;20069;-82
2023/05/31 15:37:44;;;;;;;3.00;2.00;;;28.90;34.20;;;;;;6218061;28;20073;-82
2023/05/31 15:40:47;;;;;;;6.30;3.00;;;29.00;34.20;;;;;;6214744;28;20061;-81
2023/05/31 15:43:49;;;;;;;3.22;1.80;;;29.20;34.00;;;;;;6215517;28;20169;-84
2023/05/31 15:46:50;;;;;;;3.67;1.88;;;29.10;33.60;;;;;;6212624;28;20082;-85
2023/05/31 15:49:52;;;;;;;9.63;2.05;;;29.10;33.80;;;;;;6207422;28;20207;-86
2023/05/31 15:52:54;;;;;;;6.82;1.88;;;29.30;33.90;;;;;;6214845;28;20042;-86